createdAt,value
2018-01-07T00:01:26.023Z,92.00
2018-01-07T00:03:53.566Z,92.10
2018-01-07T00:06:21.056Z,92.00
2018-01-07T00:08:48.567Z,92.20
2018-01-07T00:11:16.824Z,92.30
2018-01-07T00:13:45.214Z,92.30
2018-01-07T00:16:12.758Z,92.40
2018-01-07T00:18:40.276Z,92.30
2018-01-07T00:21:07.808Z,92.10
2018-01-07T00:23:35.386Z,92.00
2018-01-07T00:26:03.857Z,91.80
2018-01-07T00:28:43.917Z,91.80
2018-01-07T00:31:11.460Z,92.00
2018-01-07T00:33:38.958Z,92.00
2018-01-07T00:36:07.232Z,91.90
2018-01-07T00:38:35.508Z,91.80
2018-01-07T00:41:03.045Z,91.80
2018-01-07T00:43:30.565Z,91.90
2018-01-07T00:45:58.045Z,92.00
2018-01-07T00:48:25.517Z,92.20
2018-01-07T00:50:53.038Z,92.20
2018-01-07T00:53:21.311Z,92.30
2018-01-07T00:55:50.283Z,92.40
2018-01-07T00:58:17.749Z,92.40
2018-01-07T01:00:45.258Z,92.30
2018-01-07T01:03:12.749Z,92.30
2018-01-07T01:05:40.228Z,92.50
2018-01-07T01:08:07.682Z,92.50
2018-01-07T01:10:35.157Z,92.50
2018-01-07T01:13:02.623Z,92.50
2018-01-07T01:15:30.204Z,92.70
2018-01-07T01:17:58.456Z,93.00
2018-01-07T01:20:25.916Z,93.00
2018-01-07T01:22:53.385Z,93.00
2018-01-07T01:25:20.847Z,92.90
2018-01-07T01:27:48.318Z,92.80
2018-01-07T01:30:16.557Z,92.60
2018-01-07T01:32:44.429Z,92.70
2018-01-07T01:35:11.914Z,92.90
2018-01-07T01:37:39.401Z,92.80
2018-01-07T01:40:06.964Z,92.80
2018-01-07T01:42:34.419Z,92.90
2018-01-07T01:45:01.877Z,92.60
2018-01-07T01:47:29.353Z,92.30
2018-01-07T01:49:56.827Z,92.20
2018-01-07T01:52:25.061Z,92.50
2018-01-07T01:54:52.525Z,92.50
2018-01-07T01:57:20.032Z,92.70
2018-01-07T01:59:47.490Z,92.50
2018-01-07T02:02:14.961Z,92.30
2018-01-07T02:04:42.414Z,92.10
2018-01-07T02:07:09.877Z,92.10
2018-01-07T02:09:38.102Z,92.40
2018-01-07T02:12:05.561Z,92.40
2018-01-07T02:14:33.017Z,92.00
2018-01-07T02:17:00.483Z,92.00
2018-01-07T02:19:28.728Z,92.20
2018-01-07T02:21:56.205Z,92.20
2018-01-07T02:24:24.431Z,92.50
2018-01-07T02:26:51.886Z,92.50
2018-01-07T02:29:19.340Z,92.30
2018-01-07T02:31:46.816Z,92.30
2018-01-07T02:34:14.275Z,92.40
2018-01-07T02:36:41.779Z,92.50
2018-01-07T02:39:09.228Z,92.40
2018-01-07T02:41:36.697Z,92.50
2018-01-07T02:44:04.154Z,92.40
2018-01-07T02:46:31.639Z,92.50
2018-01-07T02:48:59.845Z,92.30
2018-01-07T02:51:27.316Z,92.30
2018-01-07T02:53:54.769Z,92.20
2018-01-07T02:56:22.256Z,92.10
2018-01-07T02:58:49.749Z,92.30
2018-01-07T03:01:18.004Z,92.20
2018-01-07T03:03:45.464Z,92.20
2018-01-07T03:06:12.942Z,92.20
2018-01-07T03:08:41.182Z,92.00
2018-01-07T03:11:08.648Z,92.20
2018-01-07T03:13:36.129Z,92.20
2018-01-07T03:16:03.589Z,92.10
2018-01-07T03:18:31.062Z,92.00
2018-01-07T03:20:58.516Z,92.10
2018-01-07T03:23:26.042Z,92.00
2018-01-07T03:25:53.499Z,91.80
2018-01-07T03:28:20.971Z,91.90
2018-01-07T03:30:48.447Z,92.10
2018-01-07T03:33:15.915Z,92.20
2018-01-07T03:35:43.364Z,91.90
2018-01-07T03:38:10.835Z,91.70
2018-01-07T03:40:38.297Z,91.60
2018-01-07T03:43:05.786Z,91.60
2018-01-07T03:45:33.261Z,91.80
2018-01-07T03:48:00.738Z,91.90
2018-01-07T03:50:28.969Z,91.70
2018-01-07T03:52:56.433Z,91.60
2018-01-07T03:55:23.892Z,91.60
2018-01-07T03:57:51.358Z,91.70
2018-01-07T04:00:18.843Z,91.60
2018-01-07T04:02:46.339Z,91.70
2018-01-07T04:05:13.815Z,91.50
2018-01-07T04:07:41.307Z,91.60
2018-01-07T04:10:08.771Z,91.70
2018-01-07T04:12:36.254Z,91.80
2018-01-07T04:15:03.714Z,91.80
2018-01-07T04:17:31.169Z,91.80
2018-01-07T04:19:58.642Z,91.80
2018-01-07T04:22:26.118Z,92.00
2018-01-07T04:24:53.578Z,92.00
2018-01-07T04:27:21.054Z,92.10
2018-01-07T04:29:49.281Z,91.70
2018-01-07T04:32:16.746Z,91.70
2018-01-07T04:34:44.258Z,91.80
2018-01-07T04:37:11.752Z,91.70
2018-01-07T04:39:39.263Z,91.60
2018-01-07T04:42:06.754Z,91.90
2018-01-07T04:44:34.985Z,91.70
2018-01-07T04:47:02.451Z,91.70
2018-01-07T04:49:40.765Z,92.00
2018-01-07T04:52:08.228Z,92.20
2018-01-07T04:54:35.814Z,92.20
2018-01-07T04:57:06.849Z,92.20
2018-01-07T04:59:34.333Z,92.20
2018-01-07T05:04:57.871Z,91.60
2018-01-07T05:07:26.706Z,91.50
2018-01-07T05:09:59.089Z,91.50
2018-01-07T05:12:28.432Z,91.60
2018-01-07T05:14:56.775Z,91.60
2018-01-07T05:17:32.816Z,91.20
2018-01-07T05:20:00.523Z,91.10
2018-01-07T05:22:28.014Z,91.30
2018-01-07T05:25:12.832Z,91.10
2018-01-07T05:27:59.901Z,91.20
2018-01-07T05:30:47.013Z,91.10
2018-01-07T05:33:16.911Z,91.40
2018-01-07T05:35:44.782Z,91.20
2018-01-07T05:38:12.244Z,91.10
2018-01-07T05:40:39.786Z,91.00
2018-01-07T05:43:07.268Z,91.00
2018-01-07T05:45:34.762Z,90.90
2018-01-07T05:48:02.239Z,90.80
2018-01-07T05:50:30.698Z,90.90
2018-01-07T05:52:59.076Z,90.90
2018-01-07T05:55:27.310Z,91.10
2018-01-07T05:57:54.927Z,91.20
2018-01-07T06:00:22.543Z,91.30
2018-01-07T06:02:50.731Z,91.30
2018-01-07T06:05:19.869Z,91.30
2018-01-07T06:07:49.124Z,91.30
2018-01-07T06:10:16.914Z,91.20
2018-01-07T06:12:46.088Z,91.50
2018-01-07T06:15:17.751Z,91.20
2018-01-07T06:17:45.230Z,91.20
2018-01-07T06:20:13.365Z,91.20
2018-01-07T06:22:40.830Z,91.20
2018-01-07T06:25:09.094Z,91.00
2018-01-07T06:45:04.542Z,91.20
2018-01-07T06:47:33.760Z,90.90
2018-01-07T06:50:02.107Z,90.90
2018-01-07T06:52:32.016Z,91.10
2018-01-07T06:55:02.937Z,91.10
2018-01-07T06:57:30.858Z,91.20
2018-01-07T06:59:58.388Z,91.20
2018-01-07T07:02:27.165Z,91.00
2018-01-07T07:04:55.658Z,91.20
2018-01-07T07:07:24.963Z,91.20
2018-01-07T07:09:53.405Z,90.90
2018-01-07T07:12:21.092Z,90.80
2018-01-07T07:15:04.464Z,90.60
2018-01-07T07:17:33.085Z,90.60
2018-01-07T07:20:01.024Z,90.80
2018-01-07T07:22:28.932Z,90.90
2018-01-07T07:24:59.975Z,90.60
2018-01-07T07:27:27.832Z,90.60
2018-01-07T07:29:55.814Z,90.50
2018-01-07T07:32:25.863Z,90.40
2018-01-07T07:34:55.355Z,90.60
2018-01-07T07:37:24.184Z,90.60
2018-01-07T07:39:52.064Z,90.60
2018-01-07T07:42:21.275Z,90.60
2018-01-07T08:10:57.246Z,91.10
2018-01-07T08:13:25.544Z,90.80
2018-01-07T08:15:54.426Z,91.10
2018-01-07T08:18:25.062Z,91.00
2018-01-07T08:20:53.562Z,90.80
2018-01-07T08:23:27.702Z,90.70
2018-01-07T08:25:56.391Z,90.70
2018-01-07T08:28:24.504Z,90.60
2018-01-07T08:30:53.148Z,90.80
2018-01-07T08:33:27.103Z,90.70
2018-01-07T08:35:58.164Z,90.70
2018-01-07T08:38:29.014Z,90.70
2018-01-07T08:40:59.053Z,90.60
2018-01-07T08:43:33.769Z,90.70
2018-01-07T08:46:06.348Z,90.90
2018-01-07T08:48:41.164Z,90.70
2018-01-07T08:51:09.531Z,90.60
2018-01-07T10:43:35.543Z,89.20
2018-01-07T10:46:13.080Z,89.40
2018-01-07T10:48:49.938Z,89.30
2018-01-07T11:00:02.456Z,88.60
2018-01-07T11:02:34.626Z,88.60
2018-01-07T11:05:07.646Z,88.20
2018-01-07T11:10:34.524Z,88.00
2018-01-07T11:13:02.210Z,88.60
2018-01-07T11:15:40.304Z,88.70
2018-01-07T11:18:08.060Z,88.20
2018-01-07T11:23:24.052Z,88.50
2018-01-07T11:25:54.234Z,88.50
2018-01-07T11:28:22.066Z,88.50
2018-01-07T11:30:49.577Z,88.50
2018-01-07T11:33:18.014Z,88.30
2018-01-07T11:35:45.587Z,88.30
2018-01-07T11:38:19.886Z,88.10
2018-01-07T12:53:10.195Z,87.90
2018-01-07T12:55:49.035Z,88.30
2018-01-07T12:58:19.924Z,87.70
2018-01-07T15:01:57.465Z,87.70
2018-01-07T15:04:37.775Z,88.00
2018-01-07T15:07:06.175Z,87.70
2018-01-07T15:09:37.974Z,87.80
2018-01-07T15:15:11.228Z,87.80
2018-01-07T15:18:16.251Z,88.20
2018-01-07T15:21:16.601Z,88.10
2018-01-07T15:23:46.630Z,87.90
2018-01-07T15:34:47.094Z,87.80
2018-01-07T16:29:32.420Z,88.50
2018-01-07T17:16:34.652Z,88.50
2018-01-07T17:36:24.753Z,88.60
2018-01-07T17:38:52.375Z,88.70
2018-01-07T17:41:20.016Z,88.70
2018-01-07T17:58:10.498Z,88.70
2018-01-07T18:00:39.844Z,88.70
2018-01-07T18:12:12.839Z,88.40
2018-01-07T18:15:01.919Z,88.30
2018-01-07T18:51:42.798Z,87.30
2018-01-07T18:54:11.420Z,87.20
2018-01-07T18:56:39.830Z,87.30
2018-01-07T19:45:08.863Z,87.00
2018-01-07T19:47:36.856Z,87.00
2018-01-07T19:50:05.133Z,86.60
2018-01-07T20:09:48.696Z,87.10
2018-01-07T20:12:16.328Z,86.90
2018-01-07T20:14:45.350Z,86.80
2018-01-07T20:17:13.303Z,86.80
2018-01-07T20:19:41.185Z,86.90
2018-01-07T20:22:08.897Z,87.10
2018-01-07T20:24:36.665Z,86.90
2018-01-07T20:27:05.563Z,86.80
2018-01-07T20:46:54.099Z,86.90
2018-01-07T20:49:21.737Z,86.80
2018-01-07T20:54:25.263Z,86.80
2018-01-07T20:56:54.095Z,86.70
2018-01-07T20:59:22.358Z,87.00
2018-01-07T21:01:58.392Z,87.10
2018-01-07T21:04:36.033Z,86.80
2018-01-07T21:07:07.685Z,86.90
2018-01-07T21:09:37.220Z,86.90
2018-01-07T21:12:05.363Z,86.90
2018-01-07T21:14:33.011Z,87.00
2018-01-07T21:17:00.666Z,86.90
2018-01-07T21:19:28.312Z,87.10
2018-01-07T21:21:55.976Z,87.20
2018-01-07T21:24:28.683Z,87.20
2018-01-07T21:44:13.536Z,86.50
2018-01-07T21:46:41.268Z,87.00
2018-01-07T21:49:08.921Z,87.20
2018-01-07T21:51:36.585Z,87.40
2018-01-07T21:54:04.249Z,87.40
2018-01-07T22:13:48.026Z,87.60
2018-01-07T22:16:15.714Z,87.80
2018-01-07T22:18:43.339Z,87.70
2018-01-07T22:21:11.009Z,87.70
2018-01-07T22:23:38.669Z,88.00
2018-01-07T22:26:06.366Z,87.60
2018-01-07T22:28:33.980Z,87.70
2018-01-07T22:31:01.617Z,87.60
2018-01-07T22:33:29.961Z,87.20
2018-01-07T22:35:57.595Z,87.30
2018-01-07T22:38:26.181Z,87.00
2018-01-07T22:40:55.841Z,87.30
2018-01-07T22:43:23.443Z,87.10
2018-01-07T22:45:51.139Z,87.40
2018-01-07T22:48:18.919Z,87.30
2018-01-07T22:50:46.506Z,87.20
2018-01-07T22:53:14.192Z,86.90
2018-01-07T22:55:43.069Z,87.10
2018-01-07T22:58:10.710Z,87.00
2018-01-07T23:00:39.277Z,87.30
2018-01-07T23:20:38.525Z,87.80
2018-01-07T23:23:06.825Z,87.40
2018-01-07T23:25:34.558Z,86.90
2018-01-07T23:28:04.198Z,87.70
2018-01-07T23:30:31.832Z,87.60
2018-01-07T23:33:02.236Z,87.20
2018-01-07T23:35:30.218Z,87.20
2018-01-07T23:37:58.064Z,87.70
2018-01-07T23:40:25.914Z,88.10
2018-01-07T23:42:53.729Z,87.90
2018-01-07T23:45:21.586Z,88.20
2018-01-07T23:47:49.324Z,88.20
2018-01-07T23:50:17.077Z,87.50
2018-01-07T23:52:44.665Z,87.60
2018-01-07T23:55:12.439Z,87.20
2018-01-07T23:57:41.137Z,87.50
